Time;durP1;ratioP1;P1;durP2;ratioP2;P2;SDS_P1;SDS_P2;PMS_P1;PMS_P2;Temp;Humidity;BMP_temperature;BMP_pressure;BME280_temperature;BME280_humidity;BME280_pressure;Samples;Min_cycle;Max_cycle;Signal;HPM_P1;HPM_P2
2023/09/01 00:01:05;;;;;;;4.57;3.88;;;;;;;;;;5058096;28;20408;-73
2023/09/01 00:03:32;;;;;;;5.32;3.25;;;;;;;;;;5053439;28;20432;-72
2023/09/01 00:06:02;;;;;;;5.63;3.30;;;;;;;;;;5059111;28;20419;-73
2023/09/01 00:08:29;;;;;;;5.87;3.93;;;;;;;;;;5070389;28;20416;-73
2023/09/01 00:10:56;;;;;;;6.82;3.40;;;;;;;;;;5061550;28;20416;-73
2023/09/01 00:13:23;;;;;;;5.15;3.40;;;;;;;;;;5063145;28;20527;-72
2023/09/01 00:15:49;;;;;;;6.63;3.87;;;;;;;;;;5052151;28;20441;-73
2023/09/01 00:18:17;;;;;;;4.43;3.65;;;;;;;;;;5069438;28;20492;-72
2023/09/01 00:20:44;;;;;;;5.20;3.78;;;;;;;;;;5062454;28;20408;-73
2023/09/01 00:23:12;;;;;;;4.90;3.88;;;;;;;;;;5068344;28;20439;-73
2023/09/01 00:25:39;;;;;;;6.35;3.60;;;;;;;;;;5064396;28;20409;-72
2023/09/01 00:28:06;;;;;;;5.35;3.50;;;;;;;;;;5063243;28;20433;-73
2023/09/01 00:30:34;;;;;;;5.50;3.67;;;;;;;;;;5057404;28;20458;-72
2023/09/01 00:33:01;;;;;;;4.68;3.30;;;;;;;;;;5064482;28;20423;-74
2023/09/01 00:35:28;;;;;;;4.57;3.20;;;;;;;;;;5057624;28;20429;-74
2023/09/01 00:37:55;;;;;;;5.05;3.30;;;;;;;;;;5063736;28;20411;-73
2023/09/01 00:40:23;;;;;;;4.68;3.55;;;;;;;;;;5062198;28;20507;-74
2023/09/01 00:42:50;;;;;;;5.55;3.30;;;;;;;;;;5065953;28;20478;-73
2023/09/01 00:45:17;;;;;;;7.60;4.00;;;;;;;;;;5059373;28;20468;-71
2023/09/01 00:47:45;;;;;;;4.88;3.45;;;;;;;;;;5060889;28;20407;-72
2023/09/01 00:50:12;;;;;;;4.20;3.40;;;;;;;;;;5065583;28;20445;-75
2023/09/01 00:52:39;;;;;;;5.38;3.50;;;;;;;;;;5065345;28;20439;-74
2023/09/01 00:55:06;;;;;;;4.95;3.40;;;;;;;;;;5061671;28;20801;-73
2023/09/01 00:57:35;;;;;;;4.30;3.30;;;;;;;;;;5053814;28;20688;-72
2023/09/01 01:00:02;;;;;;;7.20;3.67;;;;;;;;;;5059426;28;20436;-72
2023/09/01 01:02:29;;;;;;;5.40;3.50;;;;;;;;;;5067767;28;20418;-72
2023/09/01 01:04:56;;;;;;;5.03;3.47;;;;;;;;;;5064613;28;20417;-74
2023/09/01 01:07:28;;;;;;;3.90;3.35;;;;;;;;;;5054301;28;20832;-74
2023/09/01 01:10:00;;;;;;;4.95;3.78;;;;;;;;;;5054496;28;20448;-74
2023/09/01 01:12:30;;;;;;;4.47;3.50;;;;;;;;;;5060677;28;20431;-74
2023/09/01 01:15:00;;;;;;;5.93;3.92;;;;;;;;;;5066766;28;20925;-73
2023/09/01 01:17:28;;;;;;;4.32;3.92;;;;;;;;;;5057047;28;20438;-74
2023/09/01 01:19:56;;;;;;;5.03;3.70;;;;;;;;;;5053681;28;20432;-73
2023/09/01 01:22:35;;;;;;;3.90;3.53;;;;;;;;;;5064956;28;20422;-72
2023/09/01 01:25:05;;;;;;;5.38;3.53;;;;;;;;;;5065255;28;20400;-73
2023/09/01 01:27:33;;;;;;;5.32;3.47;;;;;;;;;;5054212;28;20452;-74
2023/09/01 01:30:00;;;;;;;6.28;3.75;;;;;;;;;;5050667;28;20804;-73
2023/09/01 01:32:27;;;;;;;4.53;3.50;;;;;;;;;;5068705;28;20494;-74
2023/09/01 01:34:59;;;;;;;4.60;3.85;;;;;;;;;;5063513;28;20810;-72
2023/09/01 01:37:30;;;;;;;6.40;4.47;;;;;;;;;;5059562;28;20430;-74
2023/09/01 01:39:58;;;;;;;5.90;3.80;;;;;;;;;;5068367;28;20403;-73
2023/09/01 01:42:29;;;;;;;4.80;4.00;;;;;;;;;;5056920;28;20916;-72
2023/09/01 01:44:58;;;;;;;5.10;3.90;;;;;;;;;;5057482;28;20429;-75
2023/09/01 01:47:25;;;;;;;6.10;3.40;;;;;;;;;;5057565;28;20469;-72
2023/09/01 01:49:52;;;;;;;5.63;4.10;;;;;;;;;;5060224;28;20404;-73
2023/09/01 01:52:19;;;;;;;5.00;3.90;;;;;;;;;;5062440;28;20414;-73
2023/09/01 01:54:46;;;;;;;5.53;3.93;;;;;;;;;;5066480;28;20447;-75
2023/09/01 01:57:14;;;;;;;4.20;3.80;;;;;;;;;;5067496;28;20411;-73
2023/09/01 01:59:43;;;;;;;4.00;3.60;;;;;;;;;;5058811;28;20508;-73
2023/09/01 02:02:10;;;;;;;4.70;3.63;;;;;;;;;;5059861;28;20446;-73
2023/09/01 02:04:37;;;;;;;6.13;4.10;;;;;;;;;;5062815;28;20413;-72
2023/09/01 02:07:05;;;;;;;4.30;3.72;;;;;;;;;;5064769;28;20782;-75
2023/09/01 02:09:32;;;;;;;4.20;3.80;;;;;;;;;;5060596;28;20424;-74
2023/09/01 02:11:59;;;;;;;4.70;4.10;;;;;;;;;;5062363;28;20419;-74
2023/09/01 02:14:26;;;;;;;4.35;3.95;;;;;;;;;;5059595;28;20436;-74
2023/09/01 02:16:54;;;;;;;4.78;3.70;;;;;;;;;;5059829;28;20427;-74
2023/09/01 02:19:21;;;;;;;6.63;3.90;;;;;;;;;;5053866;28;20427;-74
2023/09/01 02:21:48;;;;;;;6.13;4.30;;;;;;;;;;5063197;28;20415;-73
2023/09/01 02:24:16;;;;;;;4.67;3.80;;;;;;;;;;5065835;28;20488;-74
2023/09/01 02:26:43;;;;;;;5.60;4.05;;;;;;;;;;5063057;28;20874;-74
2023/09/01 02:29:10;;;;;;;4.20;3.60;;;;;;;;;;5062551;28;20452;-74
2023/09/01 02:31:37;;;;;;;5.10;4.30;;;;;;;;;;5055802;28;20514;-72
2023/09/01 02:34:05;;;;;;;6.38;3.90;;;;;;;;;;5050911;28;20891;-74
2023/09/01 02:36:33;;;;;;;4.65;4.15;;;;;;;;;;5048405;28;20425;-73
2023/09/01 02:39:01;;;;;;;5.70;4.70;;;;;;;;;;5059490;28;20422;-72
2023/09/01 02:41:28;;;;;;;5.13;4.30;;;;;;;;;;5068269;28;20404;-72
2023/09/01 02:43:55;;;;;;;7.23;4.67;;;;;;;;;;5064323;28;20801;-73
2023/09/01 02:46:22;;;;;;;6.13;4.47;;;;;;;;;;5051524;28;20404;-74
2023/09/01 02:48:49;;;;;;;6.13;4.60;;;;;;;;;;5048880;28;20422;-72
2023/09/01 02:51:18;;;;;;;5.38;4.50;;;;;;;;;;5063434;28;20422;-73
2023/09/01 02:53:45;;;;;;;5.90;4.00;;;;;;;;;;5068123;28;20415;-74
2023/09/01 02:56:12;;;;;;;4.63;4.13;;;;;;;;;;5064955;28;20435;-73
2023/09/01 02:58:39;;;;;;;5.60;4.35;;;;;;;;;;5068223;28;20408;-72
2023/09/01 03:01:07;;;;;;;6.38;4.70;;;;;;;;;;5059776;28;20427;-75
2023/09/01 03:03:35;;;;;;;5.75;4.70;;;;;;;;;;5068575;28;20782;-75
2023/09/01 03:06:02;;;;;;;6.03;4.95;;;;;;;;;;5064826;28;20771;-72
2023/09/01 03:08:31;;;;;;;5.65;4.60;;;;;;;;;;5068452;28;20662;-73
2023/09/01 03:10:58;;;;;;;5.50;5.00;;;;;;;;;;5063828;28;20419;-73
2023/09/01 03:13:25;;;;;;;6.28;4.97;;;;;;;;;;5058988;28;20447;-75
2023/09/01 03:15:55;;;;;;;5.40;4.90;;;;;;;;;;5055290;28;20915;-73
2023/09/01 03:18:22;;;;;;;5.63;4.88;;;;;;;;;;5057260;28;20407;-72
2023/09/01 03:20:49;;;;;;;6.43;5.78;;;;;;;;;;5064080;28;20428;-74
2023/09/01 03:23:16;;;;;;;6.90;5.75;;;;;;;;;;5057441;28;20421;-75
2023/09/01 03:25:45;;;;;;;6.60;6.00;;;;;;;;;;5057663;28;20417;-74
2023/09/01 03:28:12;;;;;;;7.63;6.00;;;;;;;;;;5066686;28;20513;-75
2023/09/01 03:30:39;;;;;;;8.48;6.40;;;;;;;;;;5064980;28;20452;-72
2023/09/01 03:33:06;;;;;;;7.15;6.10;;;;;;;;;;5059040;28;20409;-73
2023/09/01 03:35:33;;;;;;;6.47;5.57;;;;;;;;;;5066049;28;20508;-72
2023/09/01 03:38:00;;;;;;;6.00;5.38;;;;;;;;;;5067685;28;20473;-74
2023/09/01 03:40:27;;;;;;;6.45;5.30;;;;;;;;;;5069861;28;20416;-73
2023/09/01 03:42:56;;;;;;;6.03;5.43;;;;;;;;;;5070869;28;20482;-74
2023/09/01 03:45:23;;;;;;;7.35;5.40;;;;;;;;;;5066918;28;20780;-72
2023/09/01 03:47:50;;;;;;;6.00;5.40;;;;;;;;;;5062563;28;20476;-73
2023/09/01 03:50:17;;;;;;;8.18;5.20;;;;;;;;;;5069853;28;20427;-74
2023/09/01 03:52:44;;;;;;;6.10;5.10;;;;;;;;;;5113852;22;20436;-73
2023/09/01 03:55:12;;;;;;;5.70;4.80;;;;;;;;;;5100547;28;20694;-73
2023/09/01 03:57:39;;;;;;;5.72;5.10;;;;;;;;;;5099082;28;20452;-72
2023/09/01 04:00:11;;;;;;;6.13;5.53;;;;;;;;;;5102178;28;20455;-73
2023/09/01 04:02:38;;;;;;;5.80;5.20;;;;;;;;;;5093094;28;20651;-73
2023/09/01 04:05:06;;;;;;;6.25;4.93;;;;;;;;;;5096230;28;20430;-73
2023/09/01 04:07:33;;;;;;;6.38;5.30;;;;;;;;;;5086147;28;20453;-72
2023/09/01 04:10:01;;;;;;;5.68;4.80;;;;;;;;;;5085172;28;20480;-73
2023/09/01 04:12:28;;;;;;;6.20;4.90;;;;;;;;;;5086892;28;20425;-73
2023/09/01 04:14:55;;;;;;;6.28;5.68;;;;;;;;;;5092623;28;20420;-73
2023/09/01 04:17:25;;;;;;;5.70;4.60;;;;;;;;;;5085812;28;20885;-74
2023/09/01 04:19:52;;;;;;;5.70;5.10;;;;;;;;;;5096481;28;20437;-73
2023/09/01 04:22:19;;;;;;;6.47;5.20;;;;;;;;;;5100453;28;20488;-73
2023/09/01 04:24:46;;;;;;;5.20;4.70;;;;;;;;;;5092985;28;20408;-73
2023/09/01 04:27:13;;;;;;;5.72;4.78;;;;;;;;;;5091721;28;20417;-73
2023/09/01 04:29:40;;;;;;;5.18;4.50;;;;;;;;;;5091746;28;20422;-73
2023/09/01 04:32:07;;;;;;;5.25;4.53;;;;;;;;;;5084163;28;20437;-73
2023/09/01 04:34:35;;;;;;;6.15;5.20;;;;;;;;;;5086596;28;20439;-73
2023/09/01 04:37:03;;;;;;;4.97;4.50;;;;;;;;;;5085049;28;20445;-73
2023/09/01 04:39:30;;;;;;;5.70;4.43;;;;;;;;;;5098182;28;20414;-74
2023/09/01 04:41:58;;;;;;;4.63;4.10;;;;;;;;;;5093202;28;20414;-73
2023/09/01 04:44:25;;;;;;;5.75;4.25;;;;;;;;;;5086138;28;20903;-74
2023/09/01 04:46:52;;;;;;;5.07;4.30;;;;;;;;;;5089392;28;20425;-74
2023/09/01 04:49:19;;;;;;;5.05;4.55;;;;;;;;;;5086438;28;20429;-74
2023/09/01 04:51:47;;;;;;;7.60;4.40;;;;;;;;;;5088436;28;20425;-73
2023/09/01 04:54:14;;;;;;;6.40;4.70;;;;;;;;;;5087911;28;20517;-74
2023/09/01 04:56:42;;;;;;;5.05;4.40;;;;;;;;;;5086413;27;20421;-74
2023/09/01 04:59:09;;;;;;;4.72;4.28;;;;;;;;;;5084319;28;20511;-74
2023/09/01 05:01:36;;;;;;;4.50;4.10;;;;;;;;;;5086318;28;20425;-74
2023/09/01 05:04:05;;;;;;;7.40;4.70;;;;;;;;;;5085906;28;20540;-74
2023/09/01 05:06:32;;;;;;;6.05;4.60;;;;;;;;;;5090650;28;20421;-74
2023/09/01 05:09:00;;;;;;;5.37;4.87;;;;;;;;;;5093857;28;20410;-74
2023/09/01 05:11:29;;;;;;;6.63;4.80;;;;;;;;;;5085256;28;20434;-73
2023/09/01 05:13:56;;;;;;;5.40;4.37;;;;;;;;;;5085690;28;20880;-74
2023/09/01 05:16:23;;;;;;;5.18;4.60;;;;;;;;;;5087091;28;20435;-74
2023/09/01 05:18:50;;;;;;;4.38;3.97;;;;;;;;;;5097680;28;20503;-73
2023/09/01 05:21:17;;;;;;;5.80;4.10;;;;;;;;;;5086507;28;20442;-74
2023/09/01 05:23:44;;;;;;;5.20;4.32;;;;;;;;;;5085106;28;20844;-73
2023/09/01 05:26:12;;;;;;;6.00;4.90;;;;;;;;;;5085799;28;20860;-74
2023/09/01 05:28:39;;;;;;;4.80;4.37;;;;;;;;;;5085873;28;20487;-73
2023/09/01 05:31:06;;;;;;;5.70;4.30;;;;;;;;;;5092372;28;20534;-74
2023/09/01 05:33:33;;;;;;;4.88;4.38;;;;;;;;;;5093502;28;20457;-73
2023/09/01 05:36:00;;;;;;;4.90;4.40;;;;;;;;;;5087807;28;20447;-73
2023/09/01 05:38:27;;;;;;;5.37;4.47;;;;;;;;;;5088241;28;20409;-74
2023/09/01 05:40:57;;;;;;;4.65;3.90;;;;;;;;;;5085260;28;20429;-73
2023/09/01 05:43:26;;;;;;;4.50;4.10;;;;;;;;;;5088910;28;20413;-73
2023/09/01 05:45:53;;;;;;;6.00;4.57;;;;;;;;;;5085351;28;20421;-74
2023/09/01 05:48:20;;;;;;;4.80;4.30;;;;;;;;;;5095175;28;20878;-73
2023/09/01 05:50:47;;;;;;;5.60;4.20;;;;;;;;;;5094477;28;20422;-73
2023/09/01 05:53:14;;;;;;;5.53;4.30;;;;;;;;;;5085922;28;20433;-73
2023/09/01 05:55:41;;;;;;;5.40;4.32;;;;;;;;;;5090361;28;20815;-73
2023/09/01 05:58:08;;;;;;;4.68;3.80;;;;;;;;;;5087308;28;20900;-73
2023/09/01 06:00:37;;;;;;;5.93;4.35;;;;;;;;;;5090596;28;20426;-73
2023/09/01 06:03:04;;;;;;;5.13;4.00;;;;;;;;;;5090058;28;20425;-73
2023/09/01 06:05:31;;;;;;;4.38;3.83;;;;;;;;;;5089239;28;20496;-73
2023/09/01 06:07:59;;;;;;;4.28;3.97;;;;;;;;;;5087186;28;20425;-73
2023/09/01 06:10:26;;;;;;;4.40;4.00;;;;;;;;;;5085020;28;20832;-73
2023/09/01 06:12:53;;;;;;;5.50;3.30;;;;;;;;;;5083762;28;20448;-73
2023/09/01 06:15:20;;;;;;;4.43;3.90;;;;;;;;;;5092821;28;20425;-73
2023/09/01 06:17:49;;;;;;;4.00;3.55;;;;;;;;;;5086349;28;20425;-73
2023/09/01 06:20:16;;;;;;;4.27;3.87;;;;;;;;;;5091767;28;20510;-73
2023/09/01 06:22:43;;;;;;;5.80;4.10;;;;;;;;;;5085080;28;20410;-73
2023/09/01 06:25:10;;;;;;;6.82;3.67;;;;;;;;;;5091918;28;20439;-73
2023/09/01 06:27:37;;;;;;;3.78;3.42;;;;;;;;;;5090038;28;20426;-73
2023/09/01 06:30:05;;;;;;;4.10;3.30;;;;;;;;;;5093184;28;20909;-73
2023/09/01 06:32:33;;;;;;;3.50;3.20;;;;;;;;;;5088638;28;20814;-73
2023/09/01 06:35:01;;;;;;;4.33;3.10;;;;;;;;;;5090454;28;20409;-72
2023/09/01 06:37:28;;;;;;;3.70;3.40;;;;;;;;;;5093746;28;20430;-75
2023/09/01 06:39:55;;;;;;;3.83;3.10;;;;;;;;;;5089940;28;20498;-74
2023/09/01 06:42:22;;;;;;;4.10;3.03;;;;;;;;;;5093822;28;20473;-75
2023/09/01 06:44:50;;;;;;;3.80;3.10;;;;;;;;;;5090487;28;20433;-75
2023/09/01 06:47:17;;;;;;;3.00;2.80;;;;;;;;;;5091574;28;20422;-74
2023/09/01 06:49:44;;;;;;;3.60;2.80;;;;;;;;;;5093122;28;20447;-74
2023/09/01 06:52:13;;;;;;;4.18;2.90;;;;;;;;;;5087398;28;20430;-74
2023/09/01 06:54:40;;;;;;;3.50;3.10;;;;;;;;;;5096445;28;20618;-74
2023/09/01 06:57:07;;;;;;;3.75;2.83;;;;;;;;;;5098144;28;20457;-74
2023/09/01 06:59:34;;;;;;;4.95;3.70;;;;;;;;;;5104466;28;20415;-73
2023/09/01 07:02:02;;;;;;;4.45;3.20;;;;;;;;;;5092493;28;20441;-73
2023/09/01 07:04:29;;;;;;;4.18;3.45;;;;;;;;;;5086984;28;20752;-73
2023/09/01 07:06:56;;;;;;;4.07;3.60;;;;;;;;;;5086568;28;20432;-74
2023/09/01 07:09:25;;;;;;;4.50;4.00;;;;;;;;;;5086006;28;20509;-74
2023/09/01 07:11:52;;;;;;;6.37;3.87;;;;;;;;;;5087824;28;20516;-73
2023/09/01 07:14:19;;;;;;;4.03;3.72;;;;;;;;;;5095199;28;20422;-73
2023/09/01 07:16:46;;;;;;;4.60;3.80;;;;;;;;;;5091814;28;20433;-73
2023/09/01 07:19:13;;;;;;;4.63;4.00;;;;;;;;;;5097039;28;20420;-74
2023/09/01 07:21:40;;;;;;;4.35;3.95;;;;;;;;;;5094525;28;20445;-73
2023/09/01 07:24:07;;;;;;;4.60;4.20;;;;;;;;;;5087102;28;20859;-73
2023/09/01 07:26:36;;;;;;;4.15;3.80;;;;;;;;;;5092215;28;20416;-74
2023/09/01 07:29:03;;;;;;;4.25;3.60;;;;;;;;;;5088373;28;20588;-74
2023/09/01 07:31:30;;;;;;;5.70;4.00;;;;;;;;;;5085850;28;20499;-74
2023/09/01 07:33:57;;;;;;;5.70;3.90;;;;;;;;;;5087850;28;20726;-73
2023/09/01 07:36:24;;;;;;;4.40;3.40;;;;;;;;;;5087088;28;20442;-74
2023/09/01 07:38:51;;;;;;;4.10;3.20;;;;;;;;;;5082205;28;20417;-73
2023/09/01 07:41:18;;;;;;;3.80;3.50;;;;;;;;;;5102214;28;20559;-73
2023/09/01 07:43:48;;;;;;;4.20;3.60;;;;;;;;;;5087193;28;20410;-73
2023/09/01 07:46:15;;;;;;;4.10;3.70;;;;;;;;;;5092546;28;20653;-73
2023/09/01 07:48:42;;;;;;;4.80;4.10;;;;;;;;;;5089511;28;20424;-73
2023/09/01 07:51:10;;;;;;;4.10;3.70;;;;;;;;;;5089564;28;20935;-73
2023/09/01 07:53:37;;;;;;;3.90;3.40;;;;;;;;;;5087056;28;20413;-73
2023/09/01 07:56:04;;;;;;;6.17;4.43;;;;;;;;;;5087538;28;20406;-73
2023/09/01 07:58:31;;;;;;;5.90;4.60;;;;;;;;;;5086450;28;20449;-72
2023/09/01 08:01:00;;;;;;;5.50;4.70;;;;;;;;;;5087487;28;20484;-72
2023/09/01 08:03:28;;;;;;;5.05;4.22;;;;;;;;;;5094945;28;20430;-72
2023/09/01 08:05:55;;;;;;;6.35;5.07;;;;;;;;;;5095973;28;20425;-72
2023/09/01 08:08:23;;;;;;;7.00;5.10;;;;;;;;;;5095633;28;20830;-72
2023/09/01 08:10:50;;;;;;;6.88;4.95;;;;;;;;;;5086840;28;20477;-71
2023/09/01 08:13:17;;;;;;;5.28;4.65;;;;;;;;;;5088365;28;20410;-72
2023/09/01 08:15:44;;;;;;;6.80;5.15;;;;;;;;;;5088719;28;20429;-71
2023/09/01 08:18:12;;;;;;;5.60;5.00;;;;;;;;;;5093607;28;20424;-71
2023/09/01 08:20:40;;;;;;;5.55;4.90;;;;;;;;;;5093889;28;20449;-71
2023/09/01 08:23:07;;;;;;;5.50;5.00;;;;;;;;;;5091781;28;20436;-71
2023/09/01 08:25:34;;;;;;;5.95;5.00;;;;;;;;;;5095339;28;20414;-71
2023/09/01 08:28:02;;;;;;;5.50;4.80;;;;;;;;;;5086878;28;20509;-71
2023/09/01 08:30:29;;;;;;;5.20;4.70;;;;;;;;;;5086647;28;20418;-71
2023/09/01 08:32:56;;;;;;;4.93;4.53;;;;;;;;;;5091539;28;20443;-71
2023/09/01 08:35:24;;;;;;;5.78;4.90;;;;;;;;;;5089528;28;20432;-71
2023/09/01 08:37:51;;;;;;;5.75;4.90;;;;;;;;;;5097766;28;20424;-71
2023/09/01 08:40:19;;;;;;;5.20;4.60;;;;;;;;;;5087984;28;20448;-71
2023/09/01 08:42:48;;;;;;;5.55;4.70;;;;;;;;;;5086086;28;20671;-71
2023/09/01 08:45:15;;;;;;;5.50;5.00;;;;;;;;;;5086424;28;20406;-71
2023/09/01 08:47:44;;;;;;;5.88;5.28;;;;;;;;;;5085366;28;20425;-71
2023/09/01 08:50:11;;;;;;;5.90;5.30;;;;;;;;;;5086005;28;20924;-71
2023/09/01 08:52:42;;;;;;;6.88;5.10;;;;;;;;;;5098921;28;20415;-71
2023/09/01 08:55:10;;;;;;;5.47;4.95;;;;;;;;;;5083877;28;20413;-71
2023/09/01 08:57:38;;;;;;;5.88;5.38;;;;;;;;;;5091030;28;20505;-71
2023/09/01 09:00:07;;;;;;;5.80;5.20;;;;;;;;;;5084591;28;20494;-71
2023/09/01 09:02:34;;;;;;;6.50;5.38;;;;;;;;;;5090191;28;20437;-71
2023/09/01 09:05:02;;;;;;;5.90;5.25;;;;;;;;;;5083866;28;20675;-69
2023/09/01 09:07:29;;;;;;;5.55;4.97;;;;;;;;;;5088721;28;20429;-72
2023/09/01 09:09:59;;;;;;;6.70;5.10;;;;;;;;;;5097617;28;20445;-70
2023/09/01 09:12:36;;;;;;;5.40;4.90;;;;;;;;;;5089095;28;20417;-72
2023/09/01 09:15:03;;;;;;;5.13;4.60;;;;;;;;;;5092123;28;20459;-70
2023/09/01 09:17:40;;;;;;;4.70;4.20;;;;;;;;;;5084183;28;20529;-71
2023/09/01 09:20:08;;;;;;;4.80;4.40;;;;;;;;;;5084205;28;20433;-70
2023/09/01 09:22:50;;;;;;;4.72;4.32;;;;;;;;;;5084384;28;20421;-72
2023/09/01 09:25:26;;;;;;;4.30;3.90;;;;;;;;;;5093325;28;20412;-72
2023/09/01 09:27:53;;;;;;;4.43;4.03;;;;;;;;;;5085520;28;20425;-72
2023/09/01 09:30:20;;;;;;;4.90;4.40;;;;;;;;;;5088639;28;20478;-72
2023/09/01 09:32:48;;;;;;;4.30;3.90;;;;;;;;;;5092353;28;20444;-71
2023/09/01 09:35:16;;;;;;;4.47;3.70;;;;;;;;;;5093515;28;20408;-71
2023/09/01 09:37:43;;;;;;;4.20;3.80;;;;;;;;;;5097172;28;20422;-72
2023/09/01 09:40:11;;;;;;;4.80;4.30;;;;;;;;;;5086270;28;20410;-72
2023/09/01 09:42:40;;;;;;;4.30;3.90;;;;;;;;;;5085151;28;20410;-72
2023/09/01 09:45:21;;;;;;;5.03;4.60;;;;;;;;;;5082128;28;20570;-71
2023/09/01 09:47:50;;;;;;;7.93;7.22;;;;;;;;;;5078575;28;20414;-72
2023/09/01 09:50:18;;;;;;;7.53;6.72;;;;;;;;;;5081829;28;20993;-71
2023/09/01 09:52:48;;;;;;;12.63;11.52;;;;;;;;;;5094550;22;20465;-69
2023/09/01 09:55:20;;;;;;;6.70;6.20;;;;;;;;;;5069199;28;20426;-69
2023/09/01 09:57:49;;;;;;;5.10;4.60;;;;;;;;;;5080566;28;20422;-71
2023/09/01 10:00:18;;;;;;;4.43;4.13;;;;;;;;;;5073446;28;20429;-71
2023/09/01 10:02:46;;;;;;;4.75;4.05;;;;;;;;;;5061769;28;20487;-70
2023/09/01 10:05:15;;;;;;;5.90;4.30;;;;;;;;;;5058905;28;20431;-70
2023/09/01 10:07:42;;;;;;;4.63;4.10;;;;;;;;;;5050548;28;20913;-70
2023/09/01 10:10:11;;;;;;;4.05;3.70;;;;;;;;;;5064492;28;20751;-71
2023/09/01 10:12:38;;;;;;;4.87;3.87;;;;;;;;;;5059877;28;20494;-69
2023/09/01 10:15:08;;;;;;;4.40;4.00;;;;;;;;;;5057964;28;20415;-71
2023/09/01 10:17:35;;;;;;;4.40;4.00;;;;;;;;;;5066800;28;20434;-69
2023/09/01 10:20:07;;;;;;;4.03;3.42;;;;;;;;;;5064797;28;20439;-69
2023/09/01 10:22:38;;;;;;;6.30;3.83;;;;;;;;;;5066280;28;20434;-70
2023/09/01 10:25:10;;;;;;;4.90;4.10;;;;;;;;;;5067443;28;20419;-69
2023/09/01 10:27:37;;;;;;;5.78;4.60;;;;;;;;;;5058748;28;20415;-69
2023/09/01 10:30:19;;;;;;;5.40;3.80;;;;;;;;;;5058943;28;20409;-71
2023/09/01 10:32:48;;;;;;;5.00;3.80;;;;;;;;;;5057272;28;20436;-72
2023/09/01 10:35:15;;;;;;;4.90;4.40;;;;;;;;;;5059590;28;20444;-70
2023/09/01 10:37:42;;;;;;;5.00;4.50;;;;;;;;;;5061946;28;20423;-71
2023/09/01 10:40:24;;;;;;;4.82;4.20;;;;;;;;;;5067576;28;20747;-71
2023/09/01 10:42:51;;;;;;;5.20;4.70;;;;;;;;;;5053823;28;20695;-70
2023/09/01 10:45:19;;;;;;;4.35;3.95;;;;;;;;;;5063674;28;20502;-69
2023/09/01 10:47:51;;;;;;;4.85;3.60;;;;;;;;;;5066313;28;20443;-68
2023/09/01 10:50:18;;;;;;;3.90;3.60;;;;;;;;;;5061498;28;20881;-68
2023/09/01 10:52:46;;;;;;;4.88;4.47;;;;;;;;;;5066625;28;20418;-69
2023/09/01 10:55:13;;;;;;;5.10;3.90;;;;;;;;;;5066458;28;20416;-69
2023/09/01 10:57:42;;;;;;;4.90;4.50;;;;;;;;;;5063339;28;20433;-69
2023/09/01 11:00:28;;;;;;;4.50;4.10;;;;;;;;;;5058172;28;20423;-69
2023/09/01 11:03:16;;;;;;;4.20;3.90;;;;;;;;;;5063567;28;20433;-69
2023/09/01 11:05:43;;;;;;;4.35;4.05;;;;;;;;;;5060945;28;20486;-71
2023/09/01 11:08:11;;;;;;;4.68;4.28;;;;;;;;;;5062721;28;20408;-70
2023/09/01 11:10:38;;;;;;;5.00;4.50;;;;;;;;;;5061021;28;20417;-69
2023/09/01 11:13:13;;;;;;;4.63;4.22;;;;;;;;;;5067158;28;20461;-71
2023/09/01 11:15:44;;;;;;;5.13;4.70;;;;;;;;;;5061973;28;20459;-71
2023/09/01 11:18:17;;;;;;;4.70;4.30;;;;;;;;;;5069094;28;20942;-71
2023/09/01 11:20:45;;;;;;;5.30;4.90;;;;;;;;;;5068553;28;20408;-71
2023/09/01 11:23:12;;;;;;;8.00;6.70;;;;;;;;;;5070782;28;20423;-69
2023/09/01 11:25:39;;;;;;;5.63;5.13;;;;;;;;;;5074692;28;20410;-71
2023/09/01 11:28:07;;;;;;;5.72;5.22;;;;;;;;;;5075881;28;20892;-71
2023/09/01 11:30:34;;;;;;;5.38;4.88;;;;;;;;;;5068339;28;20515;-69
2023/09/01 11:33:11;;;;;;;5.30;4.80;;;;;;;;;;5068639;28;20431;-71
2023/09/01 11:35:39;;;;;;;5.00;4.60;;;;;;;;;;5059261;28;20413;-71
2023/09/01 11:38:07;;;;;;;5.25;4.80;;;;;;;;;;5063576;28;20431;-69
2023/09/01 11:40:34;;;;;;;5.47;5.00;;;;;;;;;;5065204;28;20420;-71
2023/09/01 11:43:02;;;;;;;5.60;5.10;;;;;;;;;;5060587;28;20425;-70
2023/09/01 11:45:29;;;;;;;6.68;6.07;;;;;;;;;;5069206;28;20922;-70
2023/09/01 11:47:56;;;;;;;6.50;6.00;;;;;;;;;;5069279;28;20412;-70
2023/09/01 11:50:23;;;;;;;6.90;6.30;;;;;;;;;;5067582;28;20818;-70
2023/09/01 11:52:52;;;;;;;6.55;5.95;;;;;;;;;;5069845;28;20415;-71
2023/09/01 11:55:29;;;;;;;6.38;5.78;;;;;;;;;;5053169;28;20866;-71
2023/09/01 11:57:56;;;;;;;6.60;6.00;;;;;;;;;;5071880;28;20444;-69
2023/09/01 12:00:31;;;;;;;5.88;5.38;;;;;;;;;;5069235;28;20434;-69
2023/09/01 12:02:59;;;;;;;5.82;5.25;;;;;;;;;;5069351;28;20420;-71
2023/09/01 12:05:29;;;;;;;6.13;5.53;;;;;;;;;;5069655;28;20440;-69
2023/09/01 12:07:59;;;;;;;5.97;5.38;;;;;;;;;;5070632;28;20419;-71
2023/09/01 12:10:26;;;;;;;5.40;4.90;;;;;;;;;;5070560;28;20415;-69
2023/09/01 12:13:02;;;;;;;5.60;5.00;;;;;;;;;;5068814;28;20435;-69
2023/09/01 12:15:29;;;;;;;6.25;5.65;;;;;;;;;;5069370;28;20403;-70
2023/09/01 12:17:56;;;;;;;4.60;4.20;;;;;;;;;;5069985;28;20906;-71
2023/09/01 12:20:23;;;;;;;5.50;5.00;;;;;;;;;;5068678;28;20435;-69
2023/09/01 12:22:50;;;;;;;5.32;4.82;;;;;;;;;;5066093;28;20431;-70
2023/09/01 12:25:18;;;;;;;5.40;4.90;;;;;;;;;;5065582;28;21553;-69
2023/09/01 12:27:45;;;;;;;6.15;5.65;;;;;;;;;;5057827;28;20908;-70
2023/09/01 12:30:13;;;;;;;5.80;5.30;;;;;;;;;;5063796;28;20412;-70
2023/09/01 12:32:40;;;;;;;5.07;4.63;;;;;;;;;;5065363;28;20435;-70
2023/09/01 12:35:07;;;;;;;5.38;4.88;;;;;;;;;;5067022;28;20427;-70
2023/09/01 12:37:34;;;;;;;6.10;5.50;;;;;;;;;;5064848;28;20423;-69
2023/09/01 12:40:02;;;;;;;4.85;4.40;;;;;;;;;;5065112;28;20425;-70
2023/09/01 12:42:30;;;;;;;4.70;4.30;;;;;;;;;;5073558;28;20426;-70
2023/09/01 12:44:57;;;;;;;3.97;3.60;;;;;;;;;;5071692;28;20432;-72
2023/09/01 12:47:24;;;;;;;4.00;3.70;;;;;;;;;;5075704;28;20469;-72
2023/09/01 12:49:51;;;;;;;4.10;3.80;;;;;;;;;;5067952;28;20430;-69
2023/09/01 12:52:18;;;;;;;4.50;3.80;;;;;;;;;;5070359;28;20935;-72
2023/09/01 12:54:45;;;;;;;4.20;3.90;;;;;;;;;;5067628;28;20423;-74
2023/09/01 12:57:13;;;;;;;4.00;3.70;;;;;;;;;;5066859;28;20813;-71
2023/09/01 12:59:41;;;;;;;3.28;2.97;;;;;;;;;;5068303;28;20431;-72
2023/09/01 13:02:08;;;;;;;4.30;2.90;;;;;;;;;;5062108;28;20580;-71
2023/09/01 13:04:36;;;;;;;2.53;2.30;;;;;;;;;;5059397;28;20423;-71
2023/09/01 13:07:03;;;;;;;2.33;2.13;;;;;;;;;;5067881;28;20434;-71
2023/09/01 13:09:30;;;;;;;2.60;2.25;;;;;;;;;;5070439;28;20423;-72
2023/09/01 13:11:57;;;;;;;2.08;1.88;;;;;;;;;;5068515;28;20859;-72
2023/09/01 13:14:24;;;;;;;2.43;2.20;;;;;;;;;;5064335;28;20964;-72
2023/09/01 13:16:52;;;;;;;3.20;2.58;;;;;;;;;;5070909;28;20439;-72
2023/09/01 13:19:19;;;;;;;2.75;2.05;;;;;;;;;;5067535;28;20423;-72
2023/09/01 13:21:46;;;;;;;2.85;2.55;;;;;;;;;;5072023;28;20418;-71
2023/09/01 13:24:13;;;;;;;2.50;1.90;;;;;;;;;;5067534;28;20439;-69
2023/09/01 13:26:40;;;;;;;2.60;2.40;;;;;;;;;;5075716;28;20432;-70
2023/09/01 13:29:07;;;;;;;3.40;2.60;;;;;;;;;;5057975;28;20426;-70
2023/09/01 13:31:34;;;;;;;3.40;2.40;;;;;;;;;;5059708;28;20427;-69
2023/09/01 13:34:03;;;;;;;3.40;3.10;;;;;;;;;;5065016;28;20430;-69
2023/09/01 13:36:30;;;;;;;3.30;3.00;;;;;;;;;;5059770;28;20476;-73
2023/09/01 13:38:57;;;;;;;3.85;3.55;;;;;;;;;;5068568;28;20805;-73
2023/09/01 13:41:24;;;;;;;3.73;3.43;;;;;;;;;;5063966;28;20446;-73
2023/09/01 13:43:51;;;;;;;4.70;3.75;;;;;;;;;;5065824;28;20806;-73
2023/09/01 13:46:19;;;;;;;3.70;3.40;;;;;;;;;;5060106;28;20432;-72
2023/09/01 13:48:46;;;;;;;5.78;4.05;;;;;;;;;;5060083;28;20794;-72
2023/09/01 13:51:15;;;;;;;3.97;3.50;;;;;;;;;;5064378;28;20798;-72
2023/09/01 13:53:42;;;;;;;4.80;4.30;;;;;;;;;;5067733;28;20412;-72
2023/09/01 13:56:09;;;;;;;5.30;4.45;;;;;;;;;;5068131;28;20432;-72
2023/09/01 13:58:36;;;;;;;5.30;4.30;;;;;;;;;;5061822;28;20451;-71
2023/09/01 14:01:03;;;;;;;7.03;5.05;;;;;;;;;;5068017;28;20427;-72
2023/09/01 14:03:31;;;;;;;4.80;4.33;;;;;;;;;;5061686;28;20521;-73
2023/09/01 14:06:00;;;;;;;5.15;4.57;;;;;;;;;;5067216;28;20511;-72
2023/09/01 14:08:29;;;;;;;4.50;4.10;;;;;;;;;;5060267;28;21043;-72
2023/09/01 14:10:56;;;;;;;3.63;3.33;;;;;;;;;;5064724;28;20431;-73
2023/09/01 14:13:23;;;;;;;3.60;3.30;;;;;;;;;;5065409;28;20450;-73
2023/09/01 14:15:51;;;;;;;3.40;3.10;;;;;;;;;;5064373;28;20428;-73
2023/09/01 14:18:18;;;;;;;4.00;3.10;;;;;;;;;;5064776;28;20999;-73
2023/09/01 14:20:45;;;;;;;3.58;2.88;;;;;;;;;;5067890;28;20431;-73
2023/09/01 14:23:13;;;;;;;3.10;2.80;;;;;;;;;;5068091;28;20415;-73
2023/09/01 14:25:41;;;;;;;3.78;3.13;;;;;;;;;;5063485;28;20433;-73
2023/09/01 14:28:08;;;;;;;1.80;1.40;;;;;;;;;;5063847;28;20427;-73
2023/09/01 14:30:37;;;;;;;1.80;0.90;;;;;;;;;;5068123;28;20407;-73
2023/09/01 14:33:04;;;;;;;1.00;0.70;;;;;;;;;;5066979;28;20432;-73
2023/09/01 14:35:30;;;;;;;1.80;0.98;;;;;;;;;;5066778;28;20438;-72
2023/09/01 14:37:57;;;;;;;1.05;0.80;;;;;;;;;;5068282;28;20513;-72
2023/09/01 14:40:24;;;;;;;1.80;1.30;;;;;;;;;;5068889;28;20806;-71
2023/09/01 14:42:53;;;;;;;1.25;0.95;;;;;;;;;;5065399;28;20704;-74
2023/09/01 14:45:21;;;;;;;1.40;1.13;;;;;;;;;;5064915;28;20438;-73
2023/09/01 14:47:49;;;;;;;1.23;0.75;;;;;;;;;;5062903;28;20445;-71